Time;durP1;ratioP1;P1;durP2;ratioP2;P2;SDS_P1;SDS_P2;PMS_P1;PMS_P2;Temp;Humidity;BMP_temperature;BMP_pressure;BME280_temperature;BME280_humidity;BME280_pressure;Samples;Min_cycle;Max_cycle;Signal;HPM_P1;HPM_P2
2024/01/22 00:00:00;;;;;;;1.65;1.55;;;;;;;;;;5099404;27;20035;-84
2024/01/22 00:02:26;;;;;;;0.50;0.50;;;;;;;;;;5124983;27;20685;-84
2024/01/22 00:04:52;;;;;;;0.40;0.40;;;;;;;;;;5106539;27;20114;-83
2024/01/22 00:07:18;;;;;;;0.40;0.40;;;;;;;;;;5098931;27;20122;-84
2024/01/22 00:09:44;;;;;;;0.50;0.50;;;;;;;;;;5098781;27;20042;-84
2024/01/22 00:12:10;;;;;;;0.40;0.40;;;;;;;;;;5096958;27;20039;-84
2024/01/22 00:14:37;;;;;;;0.38;0.38;;;;;;;;;;5098895;27;20511;-84
2024/01/22 00:17:03;;;;;;;0.40;0.40;;;;;;;;;;5098857;28;20079;-84
2024/01/22 00:19:29;;;;;;;0.50;0.50;;;;;;;;;;5098186;28;20046;-84
2024/01/22 00:21:55;;;;;;;0.40;0.40;;;;;;;;;;5098490;27;20035;-84
2024/01/22 00:24:21;;;;;;;0.43;0.43;;;;;;;;;;5098871;28;20031;-84
2024/01/22 00:26:47;;;;;;;0.88;0.88;;;;;;;;;;5098541;28;20035;-84
2024/01/22 00:29:13;;;;;;;0.40;0.40;;;;;;;;;;5098548;28;20043;-84
2024/01/22 00:31:39;;;;;;;0.50;0.50;;;;;;;;;;5098671;28;20043;-84
2024/01/22 00:34:05;;;;;;;0.40;0.40;;;;;;;;;;5098361;28;20054;-84
2024/01/22 00:36:31;;;;;;;0.50;0.50;;;;;;;;;;5098497;28;20149;-84
2024/01/22 00:38:57;;;;;;;0.32;0.32;;;;;;;;;;5098388;28;20035;-84
2024/01/22 00:41:23;;;;;;;1.10;1.05;;;;;;;;;;5115598;28;20444;-84
2024/01/22 00:43:49;;;;;;;1.42;1.33;;;;;;;;;;5098448;28;20031;-84
2024/01/22 00:46:15;;;;;;;0.50;0.50;;;;;;;;;;5098373;28;20114;-84
2024/01/22 00:48:41;;;;;;;0.40;0.40;;;;;;;;;;5098660;28;20039;-84
2024/01/22 00:51:07;;;;;;;0.50;0.50;;;;;;;;;;5098240;28;20829;-84
2024/01/22 00:53:33;;;;;;;0.40;0.40;;;;;;;;;;5098175;28;20077;-84
2024/01/22 00:55:59;;;;;;;0.40;0.40;;;;;;;;;;5100234;27;20044;-84
2024/01/22 00:58:25;;;;;;;0.40;0.40;;;;;;;;;;5102520;27;20049;-84
2024/01/22 01:00:51;;;;;;;0.40;0.40;;;;;;;;;;5102591;27;20097;-84
2024/01/22 01:03:17;;;;;;;1.50;1.35;;;;;;;;;;5102283;27;20035;-84
2024/01/22 01:05:43;;;;;;;0.40;0.40;;;;;;;;;;5102442;27;20035;-84
2024/01/22 01:08:09;;;;;;;0.40;0.40;;;;;;;;;;5102127;27;20035;-84
2024/01/22 01:10:35;;;;;;;0.50;0.50;;;;;;;;;;5102000;27;20491;-84
2024/01/22 01:13:02;;;;;;;0.50;0.50;;;;;;;;;;5102119;27;20038;-84
2024/01/22 01:15:28;;;;;;;0.45;0.45;;;;;;;;;;5102287;27;20039;-84
2024/01/22 01:17:53;;;;;;;0.40;0.40;;;;;;;;;;5119073;27;20392;-84
2024/01/22 01:20:19;;;;;;;0.40;0.40;;;;;;;;;;5101747;27;20039;-84
2024/01/22 01:22:45;;;;;;;0.50;0.50;;;;;;;;;;5118885;27;20104;-84
2024/01/22 01:25:12;;;;;;;0.47;0.47;;;;;;;;;;5102006;27;20039;-85
2024/01/22 01:27:38;;;;;;;0.40;0.40;;;;;;;;;;5101953;27;20035;-84
2024/01/22 01:30:04;;;;;;;0.40;0.40;;;;;;;;;;5101767;27;20099;-85
2024/01/22 01:32:30;;;;;;;0.40;0.40;;;;;;;;;;5101390;27;20043;-85
2024/01/22 01:34:56;;;;;;;0.38;0.38;;;;;;;;;;5101784;27;20380;-85
2024/01/22 01:37:22;;;;;;;1.58;1.48;;;;;;;;;;5101524;27;20035;-84
2024/01/22 01:39:48;;;;;;;0.40;0.40;;;;;;;;;;5101453;27;20035;-85
2024/01/22 01:45:36;;;;;;;0.40;0.40;;;;;;;;;;5137022;27;20157;-84
2024/01/22 01:48:02;;;;;;;0.95;0.95;;;;;;;;;;5118336;27;20087;-85
2024/01/22 01:50:29;;;;;;;0.40;0.40;;;;;;;;;;5101380;27;20038;-85
2024/01/22 01:52:55;;;;;;;0.40;0.40;;;;;;;;;;5101330;27;20126;-85
2024/01/22 01:55:22;;;;;;;0.40;0.40;;;;;;;;;;5101474;27;20057;-85
2024/01/22 01:57:49;;;;;;;0.40;0.40;;;;;;;;;;5118101;27;20035;-85
2024/01/22 02:00:15;;;;;;;0.30;0.30;;;;;;;;;;5118204;27;20517;-85
2024/01/22 02:02:41;;;;;;;0.50;0.50;;;;;;;;;;5100680;27;20031;-85
2024/01/22 02:05:07;;;;;;;0.40;0.40;;;;;;;;;;5101235;27;20080;-85
2024/01/22 02:07:34;;;;;;;0.40;0.40;;;;;;;;;;5100698;27;20043;-85
2024/01/22 02:10:00;;;;;;;0.40;0.40;;;;;;;;;;5100919;27;20134;-85
2024/01/22 02:12:26;;;;;;;0.40;0.40;;;;;;;;;;5118009;27;20063;-85
2024/01/22 02:14:52;;;;;;;0.30;0.30;;;;;;;;;;5100866;27;20045;-84
2024/01/22 02:17:18;;;;;;;0.40;0.40;;;;;;;;;;5100847;27;20035;-85
2024/01/22 02:19:44;;;;;;;0.47;0.47;;;;;;;;;;5100603;27;20073;-84
2024/01/22 02:22:11;;;;;;;0.85;0.73;;;;;;;;;;5100684;27;20526;-84
2024/01/22 02:24:37;;;;;;;0.40;0.40;;;;;;;;;;5101155;27;20040;-85
2024/01/22 02:27:03;;;;;;;0.40;0.40;;;;;;;;;;5117944;27;20493;-84
2024/01/22 02:29:29;;;;;;;0.32;0.32;;;;;;;;;;5100567;27;20408;-85
2024/01/22 02:31:55;;;;;;;0.40;0.40;;;;;;;;;;5100639;27;20039;-85
2024/01/22 02:34:21;;;;;;;0.40;0.40;;;;;;;;;;5100502;27;20108;-85
2024/01/22 02:36:47;;;;;;;0.40;0.40;;;;;;;;;;5100532;27;20043;-85
2024/01/22 02:39:13;;;;;;;0.40;0.40;;;;;;;;;;5117332;27;20043;-85
2024/01/22 02:41:40;;;;;;;0.30;0.30;;;;;;;;;;5100591;27;20483;-85
2024/01/22 02:44:06;;;;;;;0.38;0.38;;;;;;;;;;5100362;27;20039;-85
2024/01/22 02:46:32;;;;;;;0.40;0.40;;;;;;;;;;5100228;27;20035;-84
2024/01/22 02:48:58;;;;;;;0.30;0.30;;;;;;;;;;5117273;27;20054;-85
2024/01/22 02:51:24;;;;;;;1.25;1.15;;;;;;;;;;5117433;27;20039;-85
2024/01/22 02:53:51;;;;;;;0.32;0.32;;;;;;;;;;5100145;27;20524;-85
2024/01/22 02:56:18;;;;;;;0.40;0.40;;;;;;;;;;5100156;27;20042;-85
2024/01/22 02:58:44;;;;;;;0.35;0.35;;;;;;;;;;5116744;27;20062;-84
2024/01/22 03:01:10;;;;;;;0.40;0.40;;;;;;;;;;5099955;27;20472;-84
2024/01/22 03:03:36;;;;;;;0.32;0.32;;;;;;;;;;5100056;27;20042;-85
2024/01/22 03:06:02;;;;;;;0.30;0.30;;;;;;;;;;5099927;27;20118;-85
2024/01/22 03:08:28;;;;;;;0.30;0.30;;;;;;;;;;5099748;27;20046;-84
2024/01/22 03:10:54;;;;;;;0.30;0.30;;;;;;;;;;5099765;27;20039;-85
2024/01/22 03:13:20;;;;;;;0.20;0.20;;;;;;;;;;5116822;27;20548;-85
2024/01/22 03:15:46;;;;;;;0.40;0.40;;;;;;;;;;5099850;27;20046;-85
2024/01/22 03:18:12;;;;;;;0.30;0.30;;;;;;;;;;5099419;27;20039;-84
2024/01/22 03:20:38;;;;;;;0.40;0.40;;;;;;;;;;5098683;27;20074;-85
2024/01/22 03:23:07;;;;;;;0.43;0.43;;;;;;;;;;5099558;27;20039;-85
2024/01/22 03:25:33;;;;;;;0.40;0.40;;;;;;;;;;5099462;27;20074;-85
2024/01/22 03:27:59;;;;;;;0.90;0.85;;;;;;;;;;5099775;27;20070;-85
2024/01/22 03:30:25;;;;;;;0.30;0.30;;;;;;;;;;5099643;27;20047;-84
2024/01/22 03:32:51;;;;;;;0.30;0.30;;;;;;;;;;5099524;27;20122;-85
2024/01/22 03:35:17;;;;;;;0.40;0.40;;;;;;;;;;5099351;27;20042;-85
2024/01/22 03:37:43;;;;;;;0.40;0.40;;;;;;;;;;5099339;27;20152;-84
2024/01/22 03:40:09;;;;;;;0.40;0.40;;;;;;;;;;5116244;27;20079;-85
2024/01/22 03:42:36;;;;;;;0.30;0.30;;;;;;;;;;5099238;27;20227;-85
2024/01/22 03:45:02;;;;;;;0.40;0.40;;;;;;;;;;5099269;27;20092;-85
2024/01/22 03:47:28;;;;;;;0.30;0.30;;;;;;;;;;5115994;27;20039;-85
2024/01/22 03:49:54;;;;;;;0.38;0.38;;;;;;;;;;5098913;27;20045;-84
2024/01/22 03:52:20;;;;;;;0.30;0.30;;;;;;;;;;5116063;27;20403;-84
2024/01/22 03:54:46;;;;;;;0.40;0.40;;;;;;;;;;5099076;27;20145;-85
2024/01/22 03:57:12;;;;;;;0.40;0.40;;;;;;;;;;5099115;27;20043;-84
2024/01/22 03:59:38;;;;;;;0.50;0.50;;;;;;;;;;5098692;27;20130;-84
2024/01/22 04:02:04;;;;;;;0.40;0.40;;;;;;;;;;5115732;27;20122;-84
2024/01/22 04:04:30;;;;;;;0.43;0.43;;;;;;;;;;5098856;27;20035;-84
2024/01/22 04:06:56;;;;;;;0.40;0.40;;;;;;;;;;5098923;27;20047;-84
2024/01/22 04:09:23;;;;;;;0.43;0.43;;;;;;;;;;5098816;27;20088;-84
2024/01/22 04:11:49;;;;;;;0.40;0.40;;;;;;;;;;5098908;27;20130;-84
2024/01/22 04:14:15;;;;;;;0.40;0.40;;;;;;;;;;5115708;27;20078;-85
2024/01/22 04:16:41;;;;;;;0.40;0.40;;;;;;;;;;5098564;27;20042;-84
2024/01/22 04:19:07;;;;;;;0.40;0.40;;;;;;;;;;5098577;27;20401;-84
2024/01/22 04:21:33;;;;;;;0.30;0.30;;;;;;;;;;5098927;27;20045;-85
2024/01/22 04:23:59;;;;;;;0.30;0.30;;;;;;;;;;5098699;27;20042;-85
2024/01/22 04:26:25;;;;;;;1.45;1.35;;;;;;;;;;5098750;28;20031;-84
2024/01/22 04:28:51;;;;;;;0.30;0.30;;;;;;;;;;5115487;28;20039;-84
2024/01/22 04:31:17;;;;;;;0.30;0.30;;;;;;;;;;5098427;28;20035;-84
2024/01/22 04:33:43;;;;;;;0.40;0.40;;;;;;;;;;5098318;28;20488;-85
2024/01/22 04:36:09;;;;;;;0.40;0.40;;;;;;;;;;5098804;28;20402;-84
2024/01/22 04:38:35;;;;;;;0.40;0.40;;;;;;;;;;5098509;28;20122;-85
2024/01/22 04:41:01;;;;;;;0.40;0.40;;;;;;;;;;5115378;28;20070;-85
2024/01/22 04:43:27;;;;;;;0.35;0.35;;;;;;;;;;5098283;28;20043;-85
2024/01/22 04:45:53;;;;;;;0.40;0.40;;;;;;;;;;5115636;28;20046;-84
2024/01/22 04:48:19;;;;;;;0.30;0.30;;;;;;;;;;5098450;28;20038;-85
2024/01/22 04:50:45;;;;;;;0.82;0.82;;;;;;;;;;5115332;28;20063;-85
2024/01/22 04:53:11;;;;;;;0.50;0.50;;;;;;;;;;5098452;28;20488;-85
2024/01/22 04:55:37;;;;;;;0.32;0.32;;;;;;;;;;5098330;28;20031;-85
2024/01/22 04:58:03;;;;;;;0.38;0.38;;;;;;;;;;5115219;28;20073;-85
2024/01/22 05:00:29;;;;;;;0.40;0.40;;;;;;;;;;5115155;28;20043;-85
2024/01/22 05:02:55;;;;;;;0.32;0.32;;;;;;;;;;5097815;28;20095;-85
2024/01/22 05:05:21;;;;;;;0.30;0.30;;;;;;;;;;5098092;28;20488;-85
2024/01/22 05:07:47;;;;;;;0.40;0.40;;;;;;;;;;5115369;28;20043;-84
2024/01/22 05:10:13;;;;;;;0.40;0.40;;;;;;;;;;5078059;28;20135;-85
2024/01/22 05:12:40;;;;;;;0.40;0.40;;;;;;;;;;5097613;28;20039;-85
2024/01/22 05:15:06;;;;;;;0.30;0.30;;;;;;;;;;5098230;28;20112;-85
2024/01/22 05:17:32;;;;;;;0.28;0.28;;;;;;;;;;5098263;28;20043;-85
2024/01/22 05:19:58;;;;;;;0.30;0.30;;;;;;;;;;5097950;28;20395;-85
2024/01/22 05:22:24;;;;;;;0.35;0.35;;;;;;;;;;5097741;28;20122;-85
2024/01/22 05:24:50;;;;;;;0.40;0.40;;;;;;;;;;5098080;28;20035;-85
2024/01/22 05:27:16;;;;;;;0.40;0.40;;;;;;;;;;5098280;28;20411;-85
2024/01/22 05:29:43;;;;;;;0.20;0.20;;;;;;;;;;5098225;28;20074;-85
2024/01/22 05:32:09;;;;;;;0.40;0.40;;;;;;;;;;5114552;28;20039;-85
2024/01/22 05:34:35;;;;;;;0.20;0.20;;;;;;;;;;5098246;28;20035;-85
2024/01/22 05:37:01;;;;;;;0.30;0.30;;;;;;;;;;5097859;28;20035;-85
2024/01/22 05:39:27;;;;;;;0.40;0.40;;;;;;;;;;5097913;28;20031;-85
2024/01/22 05:41:54;;;;;;;0.40;0.40;;;;;;;;;;5097770;28;20112;-85
2024/01/22 05:44:20;;;;;;;0.38;0.38;;;;;;;;;;5101428;27;20042;-84
2024/01/22 05:46:46;;;;;;;0.30;0.30;;;;;;;;;;5101390;27;20050;-85
2024/01/22 05:49:12;;;;;;;0.30;0.30;;;;;;;;;;5101741;27;20419;-85
2024/01/22 05:51:38;;;;;;;0.40;0.40;;;;;;;;;;5101176;27;20046;-85
2024/01/22 05:54:04;;;;;;;0.22;0.22;;;;;;;;;;5101077;27;20043;-86
2024/01/22 05:56:31;;;;;;;0.30;0.30;;;;;;;;;;5101382;27;20079;-85
2024/01/22 05:58:57;;;;;;;0.30;0.30;;;;;;;;;;5100873;27;20035;-85
2024/01/22 06:01:27;;;;;;;0.45;0.45;;;;;;;;;;5101294;27;20035;-85
2024/01/22 06:03:53;;;;;;;0.30;0.30;;;;;;;;;;5101287;27;20074;-85
2024/01/22 06:06:19;;;;;;;0.40;0.40;;;;;;;;;;5118074;27;20042;-85
2024/01/22 06:08:46;;;;;;;0.30;0.30;;;;;;;;;;5117935;27;20035;-85
2024/01/22 06:11:12;;;;;;;0.30;0.30;;;;;;;;;;5101223;27;20035;-86
2024/01/22 06:13:39;;;;;;;0.22;0.22;;;;;;;;;;5100921;27;20068;-85
2024/01/22 06:16:09;;;;;;;0.40;0.40;;;;;;;;;;5101266;27;20476;-86
2024/01/22 06:18:36;;;;;;;0.40;0.40;;;;;;;;;;5101119;27;20480;-86
2024/01/22 06:21:02;;;;;;;0.30;0.30;;;;;;;;;;5100646;27;20096;-86
2024/01/22 06:23:28;;;;;;;0.40;0.40;;;;;;;;;;5100658;27;20403;-86
2024/01/22 06:25:56;;;;;;;0.30;0.30;;;;;;;;;;5100693;27;20032;-85
2024/01/22 06:28:22;;;;;;;0.30;0.30;;;;;;;;;;5100917;27;20487;-86
2024/01/22 06:30:48;;;;;;;0.40;0.40;;;;;;;;;;5101002;27;20031;-88
2024/01/22 06:33:14;;;;;;;0.30;0.30;;;;;;;;;;5100604;27;20043;-86
2024/01/22 06:35:40;;;;;;;0.30;0.30;;;;;;;;;;5100619;27;20031;-87
2024/01/22 06:38:06;;;;;;;0.30;0.30;;;;;;;;;;5100666;27;20050;-86
2024/01/22 06:40:34;;;;;;;0.30;0.30;;;;;;;;;;5100544;27;20407;-86
2024/01/22 06:43:00;;;;;;;0.20;0.20;;;;;;;;;;5100618;27;20085;-87
2024/01/22 06:45:26;;;;;;;0.40;0.40;;;;;;;;;;5100599;27;20035;-86
2024/01/22 06:47:54;;;;;;;0.30;0.30;;;;;;;;;;5117632;27;20092;-86
2024/01/22 06:50:20;;;;;;;0.30;0.30;;;;;;;;;;5100075;27;20050;-86
2024/01/22 06:52:46;;;;;;;0.30;0.30;;;;;;;;;;5100040;27;20043;-86
2024/01/22 06:55:13;;;;;;;0.30;0.30;;;;;;;;;;5100050;27;20042;-86
2024/01/22 06:57:39;;;;;;;0.30;0.30;;;;;;;;;;5100415;27;20046;-86
2024/01/22 07:00:12;;;;;;;0.20;0.20;;;;;;;;;;5099961;27;20126;-86
2024/01/22 07:02:38;;;;;;;0.30;0.30;;;;;;;;;;5099837;27;20036;-86
2024/01/22 07:05:05;;;;;;;0.30;0.30;;;;;;;;;;5117215;27;20087;-86
2024/01/22 07:07:49;;;;;;;0.20;0.20;;;;;;;;;;5117052;27;20096;-86
2024/01/22 07:10:16;;;;;;;0.38;0.38;;;;;;;;;;5100219;27;20039;-86
2024/01/22 07:12:42;;;;;;;0.30;0.30;;;;;;;;;;5100143;27;20035;-86
2024/01/22 07:18:13;;;;;;;0.20;0.20;;;;;;;;;;5116671;27;20039;-87
2024/01/22 07:20:40;;;;;;;0.30;0.30;;;;;;;;;;5116778;27;20113;-87
2024/01/22 07:23:06;;;;;;;0.30;0.30;;;;;;;;;;5099835;27;20233;-86
2024/01/22 07:25:36;;;;;;;0.30;0.30;;;;;;;;;;5099511;27;20035;-86
2024/01/22 07:28:03;;;;;;;0.30;0.30;;;;;;;;;;5116746;27;20439;-86
2024/01/22 07:30:29;;;;;;;0.30;0.30;;;;;;;;;;5099377;27;20047;-86
2024/01/22 07:32:55;;;;;;;0.30;0.30;;;;;;;;;;5099660;27;20039;-86
2024/01/22 07:35:21;;;;;;;0.30;0.30;;;;;;;;;;5099343;27;20039;-86
2024/01/22 07:37:47;;;;;;;0.22;0.22;;;;;;;;;;5099559;27;20066;-86
2024/01/22 07:40:13;;;;;;;0.30;0.30;;;;;;;;;;5099284;27;20483;-86
2024/01/22 07:42:41;;;;;;;0.30;0.30;;;;;;;;;;5099082;27;20422;-86
2024/01/22 07:45:07;;;;;;;0.40;0.40;;;;;;;;;;5099301;27;20039;-86
2024/01/22 07:47:34;;;;;;;0.20;0.20;;;;;;;;;;5111333;27;20062;-86
2024/01/22 07:50:00;;;;;;;0.30;0.30;;;;;;;;;;5133200;27;20087;-86
2024/01/22 07:52:26;;;;;;;0.30;0.30;;;;;;;;;;5117382;27;20075;-86
2024/01/22 07:54:52;;;;;;;0.30;0.30;;;;;;;;;;5098483;27;20372;-86
2024/01/22 07:57:18;;;;;;;0.20;0.20;;;;;;;;;;5092724;28;20070;-86
2024/01/22 07:59:44;;;;;;;0.30;0.30;;;;;;;;;;5108838;27;20392;-86
2024/01/22 08:02:11;;;;;;;0.30;0.30;;;;;;;;;;5100410;27;20081;-86
2024/01/22 08:04:37;;;;;;;0.30;0.30;;;;;;;;;;5114406;27;20043;-87
2024/01/22 08:07:06;;;;;;;0.30;0.30;;;;;;;;;;5097778;27;20063;-86
2024/01/22 08:09:32;;;;;;;0.30;0.30;;;;;;;;;;5101401;27;20039;-87
2024/01/22 08:11:58;;;;;;;0.35;0.35;;;;;;;;;;5097450;27;20039;-87
2024/01/22 08:14:24;;;;;;;0.40;0.40;;;;;;;;;;5096190;28;20039;-86
2024/01/22 08:17:15;;;;;;;0.30;0.30;;;;;;;;;;5092682;27;20043;-86
2024/01/22 08:19:41;;;;;;;0.30;0.30;;;;;;;;;;5091529;27;20138;-86
2024/01/22 08:22:07;;;;;;;0.30;0.30;;;;;;;;;;5122260;27;20035;-86
2024/01/22 08:24:33;;;;;;;0.30;0.30;;;;;;;;;;5101577;27;20138;-86
2024/01/22 08:27:03;;;;;;;0.30;0.30;;;;;;;;;;5106096;28;20031;-86
2024/01/22 08:29:29;;;;;;;0.30;0.30;;;;;;;;;;5097661;27;20850;-87
2024/01/22 08:31:55;;;;;;;0.43;0.43;;;;;;;;;;5094683;28;20149;-86
2024/01/22 08:34:21;;;;;;;0.30;0.30;;;;;;;;;;5117469;28;20118;-86
2024/01/22 08:36:47;;;;;;;0.30;0.30;;;;;;;;;;5102895;28;20039;-86
2024/01/22 08:39:13;;;;;;;0.32;0.32;;;;;;;;;;5101814;28;20154;-86
2024/01/22 08:41:39;;;;;;;0.30;0.30;;;;;;;;;;5096487;28;20039;-87
2024/01/22 08:44:05;;;;;;;0.30;0.30;;;;;;;;;;5096323;28;20529;-87
2024/01/22 08:46:34;;;;;;;0.30;0.30;;;;;;;;;;5096914;28;20042;-86
2024/01/22 08:49:01;;;;;;;0.30;0.30;;;;;;;;;;5097588;28;20039;-87
2024/01/22 08:51:28;;;;;;;0.20;0.20;;;;;;;;;;5097708;28;20047;-86
2024/01/22 08:54:11;;;;;;;0.38;0.38;;;;;;;;;;5096495;28;20045;-86
2024/01/22 08:56:37;;;;;;;0.40;0.40;;;;;;;;;;5112242;28;20059;-86
2024/01/22 08:59:03;;;;;;;0.30;0.30;;;;;;;;;;5102469;28;20057;-87
2024/01/22 09:01:34;;;;;;;0.30;0.30;;;;;;;;;;5108191;28;20039;-87
2024/01/22 09:04:00;;;;;;;0.32;0.32;;;;;;;;;;5096566;28;20499;-86
2024/01/22 09:06:26;;;;;;;0.30;0.30;;;;;;;;;;5104899;28;20035;-87
2024/01/22 09:08:58;;;;;;;0.30;0.30;;;;;;;;;;5114218;28;20087;-87
2024/01/22 09:11:26;;;;;;;0.30;0.30;;;;;;;;;;5097247;27;20086;-87
2024/01/22 09:13:52;;;;;;;0.28;0.28;;;;;;;;;;5091928;28;20498;-86
2024/01/22 09:16:19;;;;;;;0.20;0.20;;;;;;;;;;5106617;27;20046;-86
2024/01/22 09:18:49;;;;;;;0.20;0.20;;;;;;;;;;5106252;27;20039;-86
2024/01/22 09:21:24;;;;;;;0.20;0.20;;;;;;;;;;5099653;27;20403;-86
2024/01/22 09:23:58;;;;;;;;;;;;;;;;;;5103828;27;20039;-87
2024/01/22 09:26:30;;;;;;;0.30;0.30;;;;;;;;;;5098219;28;19916;-86
2024/01/22 09:28:56;;;;;;;0.20;0.20;;;;;;;;;;5108292;27;20559;-86
2024/01/22 09:31:22;;;;;;;0.30;0.30;;;;;;;;;;5117929;27;20043;-86
2024/01/22 09:33:51;;;;;;;0.20;0.20;;;;;;;;;;5100815;27;20039;-86
2024/01/22 09:36:17;;;;;;;0.30;0.30;;;;;;;;;;5117570;27;20054;-86
2024/01/22 09:38:43;;;;;;;0.20;0.20;;;;;;;;;;5117588;27;20119;-86
2024/01/22 09:41:09;;;;;;;0.32;0.32;;;;;;;;;;5100362;27;20035;-87
2024/01/22 09:43:35;;;;;;;0.30;0.30;;;;;;;;;;5100797;27;20031;-86
2024/01/22 09:46:02;;;;;;;0.40;0.40;;;;;;;;;;5117781;27;20088;-86
2024/01/22 09:48:29;;;;;;;0.30;0.30;;;;;;;;;;5100594;27;20487;-87
2024/01/22 09:50:55;;;;;;;0.30;0.30;;;;;;;;;;5100651;27;20031;-86
2024/01/22 09:53:22;;;;;;;0.30;0.30;;;;;;;;;;5100286;27;20042;-86
2024/01/22 09:55:48;;;;;;;0.30;0.30;;;;;;;;;;5100559;27;20038;-87
2024/01/22 09:58:19;;;;;;;0.30;0.30;;;;;;;;;;5100690;27;20050;-86
2024/01/22 10:00:46;;;;;;;0.20;0.20;;;;;;;;;;5100133;27;20043;-86
2024/01/22 10:03:13;;;;;;;0.30;0.30;;;;;;;;;;5100156;27;20031;-86
2024/01/22 10:05:40;;;;;;;0.40;0.40;;;;;;;;;;5100320;27;20094;-86
2024/01/22 10:08:06;;;;;;;0.30;0.30;;;;;;;;;;5100213;27;20043;-86
2024/01/22 10:10:32;;;;;;;0.30;0.30;;;;;;;;;;5117455;27;20078;-86
2024/01/22 10:13:07;;;;;;;0.30;0.30;;;;;;;;;;5100414;27;20066;-86
2024/01/22 10:15:34;;;;;;;0.20;0.20;;;;;;;;;;5100366;27;20143;-86
2024/01/22 10:18:13;;;;;;;0.30;0.30;;;;;;;;;;5100080;27;20436;-87
2024/01/22 10:20:39;;;;;;;0.40;0.40;;;;;;;;;;5100173;27;20035;-86
2024/01/22 10:23:05;;;;;;;0.40;0.40;;;;;;;;;;5100192;27;20050;-86
2024/01/22 10:25:32;;;;;;;0.30;0.30;;;;;;;;;;5100308;27;20088;-86
2024/01/22 10:28:07;;;;;;;0.40;0.40;;;;;;;;;;5099346;27;20391;-86
2024/01/22 10:30:33;;;;;;;0.20;0.20;;;;;;;;;;5099907;27;20118;-86
2024/01/22 10:33:19;;;;;;;0.30;0.30;;;;;;;;;;5099832;27;20139;-86
2024/01/22 10:35:47;;;;;;;0.30;0.30;;;;;;;;;;5099569;27;20084;-86
2024/01/22 10:38:19;;;;;;;0.30;0.30;;;;;;;;;;5099600;27;20436;-86
2024/01/22 10:40:46;;;;;;;0.30;0.30;;;;;;;;;;5116647;27;20184;-86
2024/01/22 10:43:19;;;;;;;0.30;0.30;;;;;;;;;;5099721;27;20050;-86
2024/01/22 10:45:46;;;;;;;0.30;0.30;;;;;;;;;;5099489;27;20501;-87
2024/01/22 10:48:13;;;;;;;0.40;0.40;;;;;;;;;;5099565;27;20475;-86
2024/01/22 10:50:41;;;;;;;0.40;0.40;;;;;;;;;;5116818;27;20050;-86
2024/01/22 10:53:08;;;;;;;0.30;0.30;;;;;;;;;;5116392;27;20047;-86
2024/01/22 10:55:34;;;;;;;0.30;0.30;;;;;;;;;;5099202;27;20095;-87
2024/01/22 10:58:08;;;;;;;0.30;0.30;;;;;;;;;;5099375;27;20042;-86
2024/01/22 11:00:40;;;;;;;0.40;0.40;;;;;;;;;;5099002;27;20039;-86
2024/01/22 11:03:07;;;;;;;0.40;0.40;;;;;;;;;;5099283;27;20039;-86
2024/01/22 11:05:34;;;;;;;0.30;0.30;;;;;;;;;;5099004;27;20028;-86
2024/01/22 11:08:01;;;;;;;0.40;0.40;;;;;;;;;;5099286;27;20046;-86
2024/01/22 11:10:27;;;;;;;0.38;0.38;;;;;;;;;;5098999;27;20407;-86
2024/01/22 11:12:54;;;;;;;0.30;0.30;;;;;;;;;;5119928;27;20030;-87
2024/01/22 11:15:21;;;;;;;0.50;0.50;;;;;;;;;;5096677;27;20065;-86
2024/01/22 11:17:47;;;;;;;0.20;0.20;;;;;;;;;;5104182;27;20076;-86
2024/01/22 11:20:17;;;;;;;0.30;0.30;;;;;;;;;;5098935;27;20122;-86
2024/01/22 11:22:48;;;;;;;0.30;0.30;;;;;;;;;;5106103;27;20062;-86
2024/01/22 11:25:14;;;;;;;0.40;0.40;;;;;;;;;;5086807;27;20046;-86
2024/01/22 11:27:41;;;;;;;0.20;0.20;;;;;;;;;;5105020;27;20045;-86
2024/01/22 11:30:25;;;;;;;0.47;0.47;;;;;;;;;;5085067;27;20133;-86
2024/01/22 11:33:12;;;;;;;0.40;0.40;;;;;;;;;;5088808;27;20031;-86
2024/01/22 11:35:58;;;;;;;0.30;0.30;;;;;;;;;;5096689;27;20076;-86
2024/01/22 11:38:42;;;;;;;0.40;0.40;;;;;;;;;;5098372;27;20088;-87
2024/01/22 11:41:08;;;;;;;0.40;0.40;;;;;;;;;;5087567;27;20062;-86
2024/01/22 11:43:34;;;;;;;0.40;0.40;;;;;;;;;;5098297;27;20127;-86
2024/01/22 11:46:06;;;;;;;0.40;0.40;;;;;;;;;;5098209;27;20114;-87
2024/01/22 11:48:32;;;;;;;0.28;0.28;;;;;;;;;;5098420;27;20077;-86
2024/01/22 11:51:02;;;;;;;0.40;0.40;;;;;;;;;;5098672;27;20039;-87
2024/01/22 11:53:28;;;;;;;0.28;0.28;;;;;;;;;;5098295;27;20104;-86
2024/01/22 11:56:01;;;;;;;0.30;0.30;;;;;;;;;;5097995;27;20039;-86
2024/01/22 11:58:28;;;;;;;0.30;0.30;;;;;;;;;;5098009;27;20039;-86
2024/01/22 12:00:55;;;;;;;0.30;0.30;;;;;;;;;;5098109;27;20121;-86
2024/01/22 12:03:28;;;;;;;0.40;0.40;;;;;;;;;;5097840;27;20039;-86
2024/01/22 12:06:01;;;;;;;0.40;0.40;;;;;;;;;;5114726;27;20042;-86
2024/01/22 12:08:27;;;;;;;0.40;0.40;;;;;;;;;;5098202;27;20034;-86
2024/01/22 12:10:56;;;;;;;0.40;0.40;;;;;;;;;;5097955;27;20396;-87
2024/01/22 12:13:23;;;;;;;0.30;0.30;;;;;;;;;;5097791;27;20070;-86
2024/01/22 12:15:55;;;;;;;0.30;0.30;;;;;;;;;;5114657;27;20043;-86
2024/01/22 12:18:23;;;;;;;0.30;0.30;;;;;;;;;;5098016;27;20060;-86
2024/01/22 12:20:50;;;;;;;0.30;0.30;;;;;;;;;;5097971;27;20039;-87
2024/01/22 12:23:27;;;;;;;0.38;0.38;;;;;;;;;;5097630;27;20089;-87
2024/01/22 12:25:53;;;;;;;0.30;0.30;;;;;;;;;;5097748;28;20067;-86
2024/01/22 12:28:20;;;;;;;0.32;0.32;;;;;;;;;;5097478;27;20510;-86
2024/01/22 12:30:46;;;;;;;0.32;0.32;;;;;;;;;;5097779;28;20043;-86
2024/01/22 12:33:21;;;;;;;0.30;0.30;;;;;;;;;;5097456;28;20053;-86
2024/01/22 12:35:47;;;;;;;0.35;0.35;;;;;;;;;;5098002;28;20039;-86
2024/01/22 12:38:13;;;;;;;0.40;0.40;;;;;;;;;;5114622;28;20555;-86
2024/01/22 12:40:41;;;;;;;0.30;0.30;;;;;;;;;;5097336;28;20039;-86
2024/01/22 12:43:18;;;;;;;0.40;0.40;;;;;;;;;;5114599;28;20047;-86
2024/01/22 12:45:44;;;;;;;0.38;0.38;;;;;;;;;;5097645;28;20399;-86
2024/01/22 12:48:27;;;;;;;0.32;0.32;;;;;;;;;;5114444;28;20035;-87
2024/01/22 12:50:56;;;;;;;0.40;0.40;;;;;;;;;;5098584;27;20115;-86
2024/01/22 12:53:22;;;;;;;0.40;0.40;;;;;;;;;;5092528;28;20040;-86
2024/01/22 12:55:48;;;;;;;0.32;0.32;;;;;;;;;;5089175;27;20054;-86
2024/01/22 12:58:14;;;;;;;0.30;0.30;;;;;;;;;;5101092;27;20130;-86
2024/01/22 13:00:40;;;;;;;0.40;0.40;;;;;;;;;;5101533;27;20051;-86
2024/01/22 13:03:14;;;;;;;0.35;0.35;;;;;;;;;;5101306;27;20168;-86
2024/01/22 13:05:40;;;;;;;0.40;0.40;;;;;;;;;;5101318;27;20406;-87
2024/01/22 13:08:08;;;;;;;0.50;0.50;;;;;;;;;;5101309;27;20499;-86
2024/01/22 13:10:34;;;;;;;0.30;0.30;;;;;;;;;;5101121;27;20407;-86
2024/01/22 13:13:00;;;;;;;0.40;0.40;;;;;;;;;;5101134;27;20043;-86
2024/01/22 13:15:26;;;;;;;0.30;0.30;;;;;;;;;;5101356;27;20434;-86
2024/01/22 13:17:52;;;;;;;0.40;0.40;;;;;;;;;;5118434;27;20043;-87
2024/01/22 13:20:18;;;;;;;0.30;0.30;;;;;;;;;;5118284;27;20035;-87
2024/01/22 13:22:44;;;;;;;0.40;0.40;;;;;;;;;;5101537;27;20145;-88
2024/01/22 13:25:10;;;;;;;0.30;0.30;;;;;;;;;;5101506;27;20075;-88
2024/01/22 13:27:36;;;;;;;0.32;0.32;;;;;;;;;;5101656;27;20344;-88
2024/01/22 13:30:02;;;;;;;0.32;0.32;;;;;;;;;;5102388;27;20139;-91
2024/01/22 13:32:28;;;;;;;0.30;0.30;;;;;;;;;;5102205;27;20047;-88
2024/01/22 13:34:56;;;;;;;0.20;0.20;;;;;;;;;;5101571;27;20051;-88
2024/01/22 13:37:22;;;;;;;0.40;0.40;;;;;;;;;;5101349;27;20039;-88
2024/01/22 13:39:48;;;;;;;0.40;0.40;;;;;;;;;;5101271;27;20511;-88
2024/01/22 13:42:15;;;;;;;0.30;0.30;;;;;;;;;;5100944;27;20122;-88
2024/01/22 13:44:41;;;;;;;0.30;0.30;;;;;;;;;;5101141;27;20035;-88
2024/01/22 13:47:07;;;;;;;0.38;0.38;;;;;;;;;;5101053;27;20114;-88
2024/01/22 13:49:33;;;;;;;0.30;0.30;;;;;;;;;;5101078;27;20476;-88
2024/01/22 13:55:27;;;;;;;0.38;0.38;;;;;;;;;;5143014;27;20403;-87
2024/01/22 13:57:55;;;;;;;0.22;0.22;;;;;;;;;;5100915;27;20039;-88
2024/01/22 14:00:21;;;;;;;0.40;0.40;;;;;;;;;;5100523;27;20047;-88
2024/01/22 14:02:47;;;;;;;0.20;0.20;;;;;;;;;;5116924;28;20074;-88
2024/01/22 14:05:13;;;;;;;0.35;0.35;;;;;;;;;;5100901;27;20039;-87
2024/01/22 14:07:39;;;;;;;0.30;0.30;;;;;;;;;;5118220;27;20130;-89
2024/01/22 14:10:05;;;;;;;0.40;0.40;;;;;;;;;;5101072;27;20043;-89
2024/01/22 14:12:31;;;;;;;0.30;0.30;;;;;;;;;;5118685;27;20047;-89
2024/01/22 14:14:57;;;;;;;0.30;0.30;;;;;;;;;;5101573;27;20053;-89
2024/01/22 14:17:24;;;;;;;0.30;0.30;;;;;;;;;;5100820;27;20061;-89
2024/01/22 14:19:50;;;;;;;0.50;0.50;;;;;;;;;;5117529;27;20099;-89
2024/01/22 14:22:16;;;;;;;0.30;0.30;;;;;;;;;;5100762;27;20039;-89
2024/01/22 14:24:42;;;;;;;0.30;0.30;;;;;;;;;;5101090;27;20058;-89
2024/01/22 14:27:08;;;;;;;0.30;0.30;;;;;;;;;;5100869;27;20483;-88
2024/01/22 14:29:34;;;;;;;0.40;0.40;;;;;;;;;;5100752;27;20050;-88
2024/01/22 14:32:00;;;;;;;0.40;0.40;;;;;;;;;;5101022;27;20035;-89
2024/01/22 14:34:26;;;;;;;0.40;0.40;;;;;;;;;;5101150;27;20043;-89
2024/01/22 14:36:52;;;;;;;0.50;0.50;;;;;;;;;;5100686;27;20043;-89
2024/01/22 14:39:20;;;;;;;0.30;0.30;;;;;;;;;;5100577;27;20039;-89
2024/01/22 14:41:46;;;;;;;0.40;0.40;;;;;;;;;;5100697;27;20070;-89
2024/01/22 14:44:12;;;;;;;0.40;0.40;;;;;;;;;;5100228;27;20149;-89
2024/01/22 14:46:41;;;;;;;0.30;0.30;;;;;;;;;;5100209;27;20398;-87
2024/01/22 14:49:10;;;;;;;0.32;0.32;;;;;;;;;;5100356;27;20043;-89
2024/01/22 14:51:36;;;;;;;0.32;0.32;;;;;;;;;;5100178;27;20095;-89